Time;durP1;ratioP1;P1;durP2;ratioP2;P2;SDS_P1;SDS_P2;PMS_P1;PMS_P2;Temp;Humidity;BMP_temperature;BMP_pressure;BME280_temperature;BME280_humidity;BME280_pressure;Samples;Min_cycle;Max_cycle;Signal;HPM_P1;HPM_P2
2023/04/12 00:00:34;;;;;;;4.27;2.97;;;;;;;;;;5044296;28;20233;-38
2023/04/12 00:03:01;;;;;;;4.23;2.60;;;;;;;;;;5036401;28;20683;-45
2023/04/12 00:05:29;;;;;;;6.20;3.20;;;;;;;;;;5046021;28;20284;-39
2023/04/12 00:07:59;;;;;;;5.13;2.77;;;;;;;;;;5048605;28;20206;-42
2023/04/12 00:10:26;;;;;;;3.57;2.47;;;;;;;;;;5039078;28;20214;-44
2023/04/12 00:12:55;;;;;;;4.23;2.53;;;;;;;;;;5043602;28;20542;-35
2023/04/12 00:15:22;;;;;;;4.50;2.93;;;;;;;;;;5043026;28;20225;-42
2023/04/12 00:17:50;;;;;;;2.43;2.03;;;;;;;;;;5034780;28;20271;-39
2023/04/12 00:20:17;;;;;;;6.57;2.70;;;;;;;;;;5032914;28;20215;-41
2023/04/12 00:22:44;;;;;;;5.37;2.33;;;;;;;;;;5046986;28;20210;-38
2023/04/12 00:25:11;;;;;;;5.40;2.60;;;;;;;;;;5047569;28;20217;-39
2023/04/12 00:27:39;;;;;;;3.27;2.50;;;;;;;;;;5042068;28;20563;-42
2023/04/12 00:30:08;;;;;;;4.30;2.70;;;;;;;;;;5048001;28;20292;-39
2023/04/12 00:32:35;;;;;;;3.00;2.50;;;;;;;;;;5033907;28;20202;-38
2023/04/12 00:35:03;;;;;;;5.77;2.70;;;;;;;;;;5046027;28;20225;-44
2023/04/12 00:37:30;;;;;;;3.50;2.20;;;;;;;;;;5046262;28;20216;-45
2023/04/12 00:39:57;;;;;;;4.40;2.70;;;;;;;;;;5046875;28;20205;-41
2023/04/12 00:42:24;;;;;;;3.70;2.63;;;;;;;;;;5039570;28;20206;-39
2023/04/12 00:44:52;;;;;;;4.27;2.73;;;;;;;;;;5038387;28;20281;-37
2023/04/12 00:47:20;;;;;;;4.93;2.50;;;;;;;;;;5029858;28;20427;-44
2023/04/12 00:49:47;;;;;;;3.53;2.90;;;;;;;;;;5037559;28;20202;-44
2023/04/12 00:52:16;;;;;;;2.90;2.20;;;;;;;;;;5031844;28;20199;-40
2023/04/12 00:54:44;;;;;;;3.87;2.40;;;;;;;;;;5027337;28;20231;-41
2023/04/12 00:57:11;;;;;;;3.43;2.50;;;;;;;;;;5033319;28;20288;-39
2023/04/12 00:59:39;;;;;;;6.87;2.60;;;;;;;;;;5046650;28;20571;-38
2023/04/12 01:02:06;;;;;;;4.20;2.47;;;;;;;;;;5028821;28;20255;-43
2023/04/12 01:04:36;;;;;;;2.77;2.53;;;;;;;;;;5034044;28;20276;-41
2023/04/12 01:07:14;;;;;;;4.20;2.77;;;;;;;;;;5036487;28;20216;-37
2023/04/12 01:09:46;;;;;;;3.10;2.20;;;;;;;;;;5036897;28;20199;-42
2023/04/12 01:12:17;;;;;;;4.57;2.40;;;;;;;;;;5027809;28;20217;-40
2023/04/12 01:14:55;;;;;;;4.07;3.10;;;;;;;;;;5027787;28;20237;-40
2023/04/12 01:17:25;;;;;;;5.43;3.23;;;;;;;;;;5033417;28;20198;-42
2023/04/12 01:19:57;;;;;;;3.23;2.37;;;;;;;;;;5035787;28;20655;-39
2023/04/12 01:22:41;;;;;;;3.87;2.43;;;;;;;;;;5044981;28;20202;-35
2023/04/12 01:25:22;;;;;;;2.10;1.90;;;;;;;;;;5045051;28;20682;-35
2023/04/12 01:27:51;;;;;;;3.07;2.20;;;;;;;;;;5042715;28;20300;-42
2023/04/12 01:30:20;;;;;;;4.60;2.10;;;;;;;;;;5046979;28;20236;-40
2023/04/12 01:32:49;;;;;;;3.67;2.60;;;;;;;;;;5037146;28;20224;-38
2023/04/12 01:35:17;;;;;;;2.77;2.30;;;;;;;;;;5041534;28;20249;-40
2023/04/12 01:37:45;;;;;;;4.80;2.30;;;;;;;;;;5045742;28;20202;-41
2023/04/12 01:40:13;;;;;;;4.47;2.20;;;;;;;;;;5042812;28;20296;-42
2023/04/12 01:42:40;;;;;;;2.30;2.10;;;;;;;;;;5029373;28;20210;-37
2023/04/12 01:45:09;;;;;;;4.17;2.00;;;;;;;;;;5035076;28;20203;-37
2023/04/12 01:47:37;;;;;;;2.70;1.90;;;;;;;;;;5030899;28;20202;-43
2023/04/12 01:50:08;;;;;;;3.43;2.20;;;;;;;;;;5025991;28;20206;-41
2023/04/12 01:52:37;;;;;;;3.43;2.40;;;;;;;;;;5025541;28;20213;-42
2023/04/12 01:55:06;;;;;;;2.93;2.17;;;;;;;;;;5026925;28;20229;-40
2023/04/12 01:57:33;;;;;;;2.83;1.87;;;;;;;;;;5040776;28;20212;-42
2023/04/12 02:00:05;;;;;;;2.87;2.27;;;;;;;;;;5038316;28;20205;-41
2023/04/12 02:02:35;;;;;;;3.73;2.47;;;;;;;;;;5034143;28;20309;-39
2023/04/12 02:05:02;;;;;;;4.60;2.50;;;;;;;;;;5026632;28;20202;-41
2023/04/12 02:07:30;;;;;;;3.37;1.90;;;;;;;;;;5026312;28;20213;-41
2023/04/12 02:09:57;;;;;;;3.93;2.40;;;;;;;;;;5023949;28;20217;-40
2023/04/12 02:12:24;;;;;;;4.43;2.30;;;;;;;;;;5038348;28;20206;-36
2023/04/12 02:14:51;;;;;;;5.40;1.90;;;;;;;;;;5033796;28;20595;-41
2023/04/12 02:17:18;;;;;;;4.07;2.07;;;;;;;;;;5022814;28;20214;-41
2023/04/12 02:19:47;;;;;;;7.13;2.83;;;;;;;;;;5036704;28;20614;-41
2023/04/12 02:22:14;;;;;;;3.03;1.90;;;;;;;;;;5031013;28;20233;-42
2023/04/12 02:24:41;;;;;;;4.67;2.40;;;;;;;;;;5026528;28;20245;-41
2023/04/12 02:27:09;;;;;;;3.10;2.13;;;;;;;;;;5031875;28;20226;-38
2023/04/12 02:29:36;;;;;;;3.40;2.03;;;;;;;;;;5044666;28;20605;-38
2023/04/12 02:32:03;;;;;;;4.33;2.00;;;;;;;;;;5042270;28;20214;-37
2023/04/12 02:34:32;;;;;;;4.93;2.10;;;;;;;;;;5045110;28;20222;-39
2023/04/12 02:37:02;;;;;;;3.13;2.00;;;;;;;;;;5046279;28;20592;-38
2023/04/12 02:39:31;;;;;;;2.40;1.90;;;;;;;;;;5033603;28;20635;-40
2023/04/12 02:41:58;;;;;;;2.40;2.10;;;;;;;;;;5040089;28;20247;-40
2023/04/12 02:44:25;;;;;;;2.87;2.33;;;;;;;;;;5032783;28;20596;-38
2023/04/12 02:46:52;;;;;;;2.70;1.90;;;;;;;;;;5023875;28;20297;-38
2023/04/12 02:49:19;;;;;;;2.33;1.80;;;;;;;;;;5038650;28;20292;-35
2023/04/12 02:51:47;;;;;;;3.50;2.20;;;;;;;;;;5036025;28;20260;-39
2023/04/12 02:54:15;;;;;;;3.63;2.17;;;;;;;;;;5041070;28;20230;-37
2023/04/12 02:56:43;;;;;;;2.60;1.53;;;;;;;;;;5037448;28;20226;-38
2023/04/12 02:59:10;;;;;;;3.63;1.80;;;;;;;;;;5048058;28;20255;-38
2023/04/12 03:01:38;;;;;;;3.63;1.70;;;;;;;;;;5046272;28;20210;-39
2023/04/12 03:04:06;;;;;;;3.23;1.70;;;;;;;;;;5040842;28;20222;-35
2023/04/12 03:06:34;;;;;;;4.03;1.87;;;;;;;;;;5040875;28;20198;-33
2023/04/12 03:09:01;;;;;;;2.30;1.47;;;;;;;;;;5029850;28;20206;-36
2023/04/12 03:11:29;;;;;;;3.67;1.63;;;;;;;;;;5028183;28;20214;-39
2023/04/12 03:13:59;;;;;;;1.83;1.63;;;;;;;;;;5049212;28;20305;-39
2023/04/12 03:16:28;;;;;;;2.77;1.90;;;;;;;;;;5039621;28;20223;-35
2023/04/12 03:18:55;;;;;;;2.77;1.43;;;;;;;;;;5033935;28;20300;-42
2023/04/12 03:21:22;;;;;;;2.00;1.83;;;;;;;;;;5040292;28;20779;-44
2023/04/12 03:23:51;;;;;;;3.97;1.80;;;;;;;;;;5028643;28;20227;-38
2023/04/12 03:26:19;;;;;;;4.33;1.63;;;;;;;;;;5029186;28;20207;-40
2023/04/12 03:28:48;;;;;;;5.50;1.80;;;;;;;;;;5028150;28;20665;-40
2023/04/12 03:31:20;;;;;;;3.00;1.60;;;;;;;;;;5029471;28;20641;-42
2023/04/12 03:33:47;;;;;;;2.37;1.43;;;;;;;;;;5033578;28;20226;-36
2023/04/12 03:36:14;;;;;;;1.50;1.40;;;;;;;;;;5027704;28;20685;-38
2023/04/12 03:38:42;;;;;;;2.43;1.87;;;;;;;;;;5028462;28;20302;-38
2023/04/12 03:41:09;;;;;;;2.53;1.60;;;;;;;;;;5027806;28;20217;-37
2023/04/12 03:43:36;;;;;;;1.70;1.60;;;;;;;;;;5036572;28;20236;-43
2023/04/12 03:46:05;;;;;;;6.63;1.73;;;;;;;;;;5026403;28;20671;-42
2023/04/12 03:48:32;;;;;;;2.30;1.50;;;;;;;;;;5042854;28;20198;-40
2023/04/12 03:50:59;;;;;;;5.37;1.63;;;;;;;;;;5027367;28;20212;-41
2023/04/12 03:53:26;;;;;;;3.13;1.93;;;;;;;;;;5028050;28;20261;-39
2023/04/12 03:55:54;;;;;;;3.43;1.77;;;;;;;;;;5028853;28;20269;-42
2023/04/12 03:58:22;;;;;;;2.63;1.60;;;;;;;;;;5041589;28;20293;-37
2023/04/12 04:00:49;;;;;;;6.03;1.67;;;;;;;;;;5037876;28;20202;-43
2023/04/12 04:03:17;;;;;;;2.67;1.67;;;;;;;;;;5045405;28;20222;-41
2023/04/12 04:05:45;;;;;;;2.40;1.80;;;;;;;;;;5038371;28;20403;-38
2023/04/12 04:08:14;;;;;;;2.10;1.50;;;;;;;;;;5047392;28;20178;-41
2023/04/12 04:10:41;;;;;;;2.50;1.70;;;;;;;;;;5033238;28;20242;-40
2023/04/12 04:13:08;;;;;;;1.80;1.57;;;;;;;;;;5038506;28;20241;-39
2023/04/12 04:15:36;;;;;;;2.83;1.80;;;;;;;;;;5030918;28;20220;-38
2023/04/12 04:18:03;;;;;;;4.43;1.70;;;;;;;;;;5040698;28;20216;-42
2023/04/12 04:20:32;;;;;;;2.00;1.27;;;;;;;;;;5037354;28;20210;-37
2023/04/12 04:22:59;;;;;;;4.00;1.77;;;;;;;;;;5025469;28;20237;-38
2023/04/12 04:25:28;;;;;;;1.80;1.70;;;;;;;;;;5039241;28;20217;-36
2023/04/12 04:27:58;;;;;;;1.90;1.73;;;;;;;;;;5039415;28;20198;-36
2023/04/12 04:30:25;;;;;;;2.97;1.50;;;;;;;;;;5042874;28;20206;-39
2023/04/12 04:32:52;;;;;;;5.07;2.03;;;;;;;;;;5031808;28;20226;-37
2023/04/12 04:35:20;;;;;;;4.57;2.00;;;;;;;;;;5035414;28;20194;-35
2023/04/12 04:37:50;;;;;;;2.83;1.60;;;;;;;;;;5026853;28;20210;-44
2023/04/12 04:40:19;;;;;;;3.87;2.10;;;;;;;;;;5025541;28;20653;-37
2023/04/12 04:42:53;;;;;;;4.43;2.20;;;;;;;;;;5026109;28;20365;-40
2023/04/12 04:45:20;;;;;;;3.90;1.60;;;;;;;;;;5029010;28;20202;-38
2023/04/12 04:47:47;;;;;;;3.03;2.03;;;;;;;;;;5034987;28;20198;-39
2023/04/12 04:50:15;;;;;;;3.13;1.77;;;;;;;;;;5026777;28;20210;-38
2023/04/12 04:52:43;;;;;;;2.73;1.70;;;;;;;;;;5027049;28;20194;-39
2023/04/12 04:55:12;;;;;;;4.17;1.97;;;;;;;;;;5032676;28;20214;-42
2023/04/12 04:57:39;;;;;;;2.70;1.90;;;;;;;;;;5031829;28;20233;-40
2023/04/12 05:00:10;;;;;;;1.80;1.50;;;;;;;;;;5029842;28;20213;-36
2023/04/12 05:02:38;;;;;;;3.73;1.67;;;;;;;;;;5029822;28;20202;-42
2023/04/12 05:05:06;;;;;;;3.20;1.80;;;;;;;;;;5031717;28;20211;-40
2023/04/12 05:07:33;;;;;;;4.70;2.00;;;;;;;;;;5026820;28;20198;-42
2023/04/12 05:10:00;;;;;;;2.77;1.40;;;;;;;;;;5028333;28;20236;-37
2023/04/12 05:12:30;;;;;;;2.07;1.47;;;;;;;;;;5036961;28;20579;-37
2023/04/12 05:14:57;;;;;;;2.03;1.47;;;;;;;;;;5038559;28;20305;-40
2023/04/12 05:17:24;;;;;;;3.20;1.53;;;;;;;;;;5035332;28;20416;-43
2023/04/12 05:19:51;;;;;;;1.90;1.63;;;;;;;;;;5026304;28;20211;-39
2023/04/12 05:22:20;;;;;;;2.93;1.33;;;;;;;;;;5027871;28;20217;-36
2023/04/12 05:24:47;;;;;;;3.90;2.37;;;;;;;;;;5029939;28;20230;-38
2023/04/12 05:27:15;;;;;;;3.23;1.50;;;;;;;;;;5044219;28;20206;-36
2023/04/12 05:29:44;;;;;;;2.23;1.60;;;;;;;;;;5038490;28;20203;-37
2023/04/12 05:32:11;;;;;;;1.60;1.50;;;;;;;;;;5033633;28;20214;-38
2023/04/12 05:34:38;;;;;;;2.00;1.60;;;;;;;;;;5038341;28;20229;-39
2023/04/12 05:37:06;;;;;;;1.67;1.57;;;;;;;;;;5049208;28;20246;-37
2023/04/12 05:39:34;;;;;;;2.43;1.67;;;;;;;;;;5049342;28;20877;-39
2023/04/12 05:42:01;;;;;;;1.23;1.13;;;;;;;;;;5030709;28;20202;-37
2023/04/12 05:44:28;;;;;;;2.37;1.43;;;;;;;;;;5040493;28;20271;-41
2023/04/12 05:46:57;;;;;;;1.63;1.53;;;;;;;;;;5035222;28;20230;-37
2023/04/12 05:49:24;;;;;;;2.20;1.70;;;;;;;;;;5040748;28;20220;-40
2023/04/12 05:51:51;;;;;;;2.00;1.33;;;;;;;;;;5048494;28;20296;-41
2023/04/12 05:54:19;;;;;;;3.40;1.70;;;;;;;;;;5043953;28;20246;-36
2023/04/12 05:56:47;;;;;;;1.60;1.50;;;;;;;;;;5041191;28;20218;-40
2023/04/12 05:59:15;;;;;;;1.67;1.57;;;;;;;;;;5049597;28;20693;-35
2023/04/12 06:01:43;;;;;;;1.70;1.60;;;;;;;;;;5038827;28;20207;-40
2023/04/12 06:04:12;;;;;;;1.67;1.57;;;;;;;;;;5043922;28;20238;-40
2023/04/12 06:06:39;;;;;;;2.30;1.43;;;;;;;;;;5031795;28;20630;-38
2023/04/12 06:09:06;;;;;;;1.90;1.80;;;;;;;;;;5029178;28;20209;-37
2023/04/12 06:11:34;;;;;;;2.67;1.70;;;;;;;;;;5046664;28;20210;-37
2023/04/12 06:14:01;;;;;;;3.30;1.60;;;;;;;;;;5029188;28;20226;-40
2023/04/12 06:16:28;;;;;;;3.30;1.63;;;;;;;;;;5029147;28;20764;-37
2023/04/12 06:18:55;;;;;;;2.47;1.80;;;;;;;;;;5035009;28;20202;-41
2023/04/12 06:21:25;;;;;;;4.13;1.67;;;;;;;;;;5036409;28;20202;-38
2023/04/12 06:23:52;;;;;;;2.00;1.57;;;;;;;;;;5030294;28;20696;-37
2023/04/12 06:26:19;;;;;;;2.00;1.80;;;;;;;;;;5041696;28;20400;-39
2023/04/12 06:28:46;;;;;;;2.13;1.40;;;;;;;;;;5035505;28;20207;-41
2023/04/12 06:31:13;;;;;;;1.80;1.60;;;;;;;;;;5038630;28;20211;-34
2023/04/12 06:33:41;;;;;;;1.97;1.77;;;;;;;;;;5040594;28;20225;-37
2023/04/12 06:36:10;;;;;;;2.33;1.60;;;;;;;;;;5042787;28;20226;-38
2023/04/12 06:38:38;;;;;;;3.70;1.90;;;;;;;;;;5031894;28;20194;-39
2023/04/12 06:41:06;;;;;;;2.93;2.10;;;;;;;;;;5030209;28;20210;-35
2023/04/12 06:43:33;;;;;;;2.30;1.87;;;;;;;;;;5041875;28;20277;-38
2023/04/12 06:46:01;;;;;;;5.97;1.90;;;;;;;;;;5049164;28;20212;-37
2023/04/12 06:48:28;;;;;;;3.27;2.27;;;;;;;;;;5044282;28;20214;-40
2023/04/12 06:50:56;;;;;;;2.17;1.60;;;;;;;;;;5051791;28;20198;-41
2023/04/12 06:53:23;;;;;;;2.57;1.80;;;;;;;;;;5052903;28;20236;-35
2023/04/12 06:55:52;;;;;;;2.23;1.83;;;;;;;;;;5048717;28;20483;-42
2023/04/12 06:58:20;;;;;;;2.63;1.80;;;;;;;;;;5047281;28;20265;-41
2023/04/12 07:00:47;;;;;;;3.80;1.60;;;;;;;;;;5044012;28;20382;-36
2023/04/12 07:03:14;;;;;;;2.20;1.33;;;;;;;;;;5041379;28;20232;-39
2023/04/12 07:05:41;;;;;;;2.87;1.50;;;;;;;;;;5041571;28;20207;-40
2023/04/12 07:08:09;;;;;;;2.70;1.93;;;;;;;;;;5033389;28;20217;-36
2023/04/12 07:10:36;;;;;;;2.03;1.50;;;;;;;;;;5039376;28;20210;-44
2023/04/12 07:13:07;;;;;;;3.37;1.80;;;;;;;;;;5044431;28;20222;-41
2023/04/12 07:15:34;;;;;;;1.83;1.70;;;;;;;;;;5031124;28;20206;-40
2023/04/12 07:18:01;;;;;;;2.53;1.47;;;;;;;;;;5038320;28;20316;-38
2023/04/12 07:20:28;;;;;;;1.30;1.20;;;;;;;;;;5031845;28;20209;-35
2023/04/12 07:22:55;;;;;;;1.20;1.10;;;;;;;;;;5030912;28;20713;-39
2023/04/12 07:25:22;;;;;;;2.40;1.50;;;;;;;;;;5029954;28;20210;-43
2023/04/12 07:27:49;;;;;;;1.60;1.13;;;;;;;;;;5036508;28;20203;-38
2023/04/12 07:30:18;;;;;;;2.47;1.63;;;;;;;;;;5031515;28;20199;-41
2023/04/12 07:32:45;;;;;;;2.33;1.70;;;;;;;;;;5027271;28;20577;-42
2023/04/12 07:35:12;;;;;;;2.03;1.67;;;;;;;;;;5031739;28;20202;-39
2023/04/12 07:37:40;;;;;;;3.93;1.83;;;;;;;;;;5031779;28;20254;-42
2023/04/12 07:40:08;;;;;;;3.70;2.77;;;;;;;;;;5033816;28;20231;-36
2023/04/12 07:42:35;;;;;;;4.43;2.67;;;;;;;;;;5042893;28;20260;-41
2023/04/12 07:45:05;;;;;;;3.07;2.13;;;;;;;;;;5038318;28;20216;-40
2023/04/12 07:47:33;;;;;;;4.83;2.00;;;;;;;;;;5045854;28;20302;-39
2023/04/12 07:50:00;;;;;;;2.53;1.50;;;;;;;;;;5043701;28;20201;-43
2023/04/12 07:52:27;;;;;;;3.37;1.90;;;;;;;;;;5034309;28;20558;-40
2023/04/12 07:54:55;;;;;;;3.57;1.37;;;;;;;;;;5040797;28;20202;-37
2023/04/12 07:57:23;;;;;;;3.47;1.57;;;;;;;;;;5040427;28;20627;-39
2023/04/12 07:59:50;;;;;;;2.20;1.30;;;;;;;;;;5030182;28;20199;-41
2023/04/12 08:02:23;;;;;;;5.20;1.67;;;;;;;;;;5037106;28;20210;-41
2023/04/12 08:04:52;;;;;;;2.73;1.53;;;;;;;;;;5040469;28;20237;-42
2023/04/12 08:07:20;;;;;;;4.17;1.60;;;;;;;;;;5047367;28;20205;-37
2023/04/12 08:09:48;;;;;;;1.40;1.30;;;;;;;;;;5051542;28;20209;-39
2023/04/12 08:12:17;;;;;;;5.27;1.83;;;;;;;;;;5039424;28;20210;-43
2023/04/12 08:14:45;;;;;;;1.60;1.40;;;;;;;;;;5043969;28;20718;-44
2023/04/12 08:17:14;;;;;;;5.10;1.87;;;;;;;;;;5042519;28;20228;-41
2023/04/12 08:19:41;;;;;;;2.77;1.70;;;;;;;;;;5051911;28;20201;-42
2023/04/12 08:22:09;;;;;;;2.07;1.40;;;;;;;;;;5051851;28;20210;-39
2023/04/12 08:24:37;;;;;;;5.70;1.37;;;;;;;;;;5049124;28;20236;-42
2023/04/12 08:27:04;;;;;;;2.50;1.70;;;;;;;;;;5040032;28;20210;-38
2023/04/12 08:29:34;;;;;;;1.50;1.40;;;;;;;;;;5042704;28;20251;-36
2023/04/12 08:32:02;;;;;;;2.10;1.60;;;;;;;;;;5047698;28;20206;-43
2023/04/12 08:34:29;;;;;;;2.37;1.67;;;;;;;;;;5045185;28;20268;-38
2023/04/12 08:36:59;;;;;;;1.97;1.63;;;;;;;;;;5034730;28;20206;-36
2023/04/12 08:39:27;;;;;;;1.93;1.33;;;;;;;;;;5052552;28;20205;-37
2023/04/12 08:41:55;;;;;;;1.90;1.30;;;;;;;;;;5035801;28;20240;-42
2023/04/12 08:44:32;;;;;;;3.30;1.47;;;;;;;;;;5049299;28;20692;-40
2023/04/12 08:46:59;;;;;;;2.30;1.67;;;;;;;;;;5036592;28;20297;-42
2023/04/12 08:49:26;;;;;;;1.97;1.20;;;;;;;;;;5046085;28;20264;-41
2023/04/12 08:51:54;;;;;;;2.90;1.40;;;;;;;;;;5043267;28;20198;-41
2023/04/12 08:54:22;;;;;;;1.63;1.53;;;;;;;;;;5047964;28;20240;-38
2023/04/12 08:56:52;;;;;;;2.27;1.30;;;;;;;;;;5039549;28;20590;-37
2023/04/12 08:59:19;;;;;;;2.90;1.17;;;;;;;;;;5052377;28;20206;-37
2023/04/12 09:01:46;;;;;;;1.30;1.20;;;;;;;;;;5040332;28;20276;-39
2023/04/12 09:04:14;;;;;;;1.67;1.40;;;;;;;;;;5046177;28;20364;-42
2023/04/12 09:06:41;;;;;;;1.70;1.60;;;;;;;;;;5049942;28;20217;-43
2023/04/12 09:09:09;;;;;;;3.73;1.43;;;;;;;;;;5052899;28;20220;-40
2023/04/12 09:11:36;;;;;;;2.27;1.67;;;;;;;;;;5034718;28;20203;-42
2023/04/12 09:14:21;;;;;;;1.40;1.30;;;;;;;;;;5047953;28;20234;-44
2023/04/12 09:16:48;;;;;;;1.43;1.10;;;;;;;;;;5043971;28;20255;-39
2023/04/12 09:19:15;;;;;;;3.40;1.73;;;;;;;;;;5048639;28;20206;-40
2023/04/12 09:21:52;;;;;;;1.50;1.40;;;;;;;;;;5045688;28;20656;-40
2023/04/12 09:24:22;;;;;;;1.47;1.20;;;;;;;;;;5044445;28;20237;-38
2023/04/12 09:26:50;;;;;;;1.60;1.47;;;;;;;;;;5038524;28;20194;-36
2023/04/12 09:29:25;;;;;;;1.23;1.10;;;;;;;;;;5043909;28;20232;-38
2023/04/12 09:31:56;;;;;;;1.30;1.03;;;;;;;;;;5032344;28;20260;-40
2023/04/12 09:34:23;;;;;;;1.77;1.20;;;;;;;;;;5047153;28;20240;-40
2023/04/12 09:36:50;;;;;;;4.53;1.20;;;;;;;;;;5052027;28;20295;-38
2023/04/12 09:39:17;;;;;;;1.93;1.40;;;;;;;;;;5048941;28;20199;-38
2023/04/12 09:41:44;;;;;;;1.83;1.10;;;;;;;;;;5046945;28;20206;-38
2023/04/12 09:44:28;;;;;;;1.43;1.10;;;;;;;;;;5052091;28;20233;-33
2023/04/12 09:46:57;;;;;;;2.27;1.30;;;;;;;;;;5039886;28;20232;-40
2023/04/12 09:49:36;;;;;;;2.57;1.47;;;;;;;;;;5044331;28;20234;-40
2023/04/12 09:52:04;;;;;;;1.20;1.10;;;;;;;;;;5049836;28;20240;-41
2023/04/12 09:54:32;;;;;;;1.73;1.23;;;;;;;;;;5053036;28;20291;-41
2023/04/12 09:56:59;;;;;;;1.33;1.20;;;;;;;;;;5042708;28;20216;-41
2023/04/12 09:59:28;;;;;;;1.57;1.20;;;;;;;;;;5051590;28;20288;-41
2023/04/12 10:01:57;;;;;;;1.20;1.10;;;;;;;;;;5043181;28;20209;-42
2023/04/12 10:04:25;;;;;;;1.93;1.33;;;;;;;;;;5036312;28;20313;-33
2023/04/12 10:06:52;;;;;;;0.90;0.90;;;;;;;;;;5052482;28;20208;-41
2023/04/12 10:09:20;;;;;;;3.20;1.43;;;;;;;;;;5050367;28;20204;-43
2023/04/12 10:11:48;;;;;;;1.83;1.20;;;;;;;;;;5039889;28;20763;-44
2023/04/12 10:14:16;;;;;;;1.47;1.23;;;;;;;;;;5051597;28;20229;-39
2023/04/12 10:16:44;;;;;;;1.50;1.30;;;;;;;;;;5047028;28;20210;-37
2023/04/12 10:19:28;;;;;;;3.87;1.30;;;;;;;;;;5042756;28;20231;-37
2023/04/12 10:21:56;;;;;;;2.70;1.40;;;;;;;;;;5048104;28;20255;-44
2023/04/12 10:24:23;;;;;;;1.40;1.30;;;;;;;;;;5056085;28;20611;-38
2023/04/12 10:26:50;;;;;;;1.47;1.37;;;;;;;;;;5045827;28;20202;-39
2023/04/12 10:29:25;;;;;;;3.03;1.27;;;;;;;;;;5054685;28;20202;-41
2023/04/12 10:31:52;;;;;;;2.60;1.57;;;;;;;;;;5040962;28;20205;-43
2023/04/12 10:34:23;;;;;;;3.97;1.20;;;;;;;;;;5035835;28;20815;-42
2023/04/12 10:36:56;;;;;;;4.17;1.80;;;;;;;;;;5036391;28;20293;-41
2023/04/12 10:39:39;;;;;;;1.37;1.27;;;;;;;;;;5047153;28;20233;-42
2023/04/12 10:42:22;;;;;;;3.70;1.67;;;;;;;;;;5051475;28;20206;-41
2023/04/12 10:44:50;;;;;;;2.00;1.27;;;;;;;;;;5055346;28;20276;-40
2023/04/12 10:47:38;;;;;;;1.73;1.40;;;;;;;;;;5046561;28;20305;-37
2023/04/12 10:50:23;;;;;;;1.97;1.60;;;;;;;;;;5049002;28;20232;-43
2023/04/12 10:53:05;;;;;;;2.07;1.20;;;;;;;;;;5055350;28;20711;-39
2023/04/12 10:55:34;;;;;;;2.43;1.10;;;;;;;;;;5048614;28;20203;-39
2023/04/12 10:58:01;;;;;;;1.23;1.13;;;;;;;;;;5045735;28;20214;-37
2023/04/12 11:00:52;;;;;;;1.50;1.10;;;;;;;;;;5037087;28;20224;-43
2023/04/12 11:03:21;;;;;;;1.30;1.00;;;;;;;;;;5044987;28;20241;-40
2023/04/12 11:06:01;;;;;;;1.07;0.90;;;;;;;;;;5052767;28;20286;-43
2023/04/12 11:08:29;;;;;;;1.77;1.00;;;;;;;;;;5056253;28;20201;-36
2023/04/12 11:11:03;;;;;;;1.13;1.00;;;;;;;;;;5046947;28;20268;-43
2023/04/12 11:13:35;;;;;;;1.07;0.90;;;;;;;;;;5041159;28;20291;-38
2023/04/12 11:16:02;;;;;;;0.77;0.77;;;;;;;;;;5042001;28;20210;-43
2023/04/12 11:18:31;;;;;;;0.80;0.80;;;;;;;;;;5045273;28;20737;-38
2023/04/12 11:20:58;;;;;;;1.30;0.87;;;;;;;;;;5051570;28;20209;-40
2023/04/12 11:23:26;;;;;;;1.20;1.10;;;;;;;;;;5055602;28;20276;-40
2023/04/12 11:26:09;;;;;;;1.07;0.70;;;;;;;;;;5045350;28;20224;-41
2023/04/12 11:28:36;;;;;;;1.23;0.80;;;;;;;;;;5042418;28;20224;-37
2023/04/12 11:31:04;;;;;;;1.60;0.73;;;;;;;;;;5039530;28;20657;-38
2023/04/12 11:33:33;;;;;;;0.90;0.80;;;;;;;;;;5045381;28;20230;-35
2023/04/12 11:36:03;;;;;;;0.67;0.67;;;;;;;;;;5056477;28;20644;-39
2023/04/12 11:38:30;;;;;;;0.97;0.70;;;;;;;;;;5055799;28;20207;-37
2023/04/12 11:40:57;;;;;;;2.37;0.70;;;;;;;;;;5051732;28;20206;-44
2023/04/12 11:43:25;;;;;;;0.70;0.70;;;;;;;;;;5054347;28;20239;-38
2023/04/12 11:45:56;;;;;;;1.40;0.80;;;;;;;;;;5049363;28;20206;-40
2023/04/12 11:48:23;;;;;;;2.30;0.73;;;;;;;;;;5048288;28;20229;-37
2023/04/12 11:50:51;;;;;;;1.03;0.70;;;;;;;;;;5049384;28;20195;-43
2023/04/12 11:53:19;;;;;;;0.57;0.57;;;;;;;;;;5050221;28;20226;-37
2023/04/12 11:55:49;;;;;;;1.23;0.93;;;;;;;;;;5046978;28;20214;-43
2023/04/12 11:58:16;;;;;;;1.53;0.50;;;;;;;;;;5048973;28;20229;-43
2023/04/12 12:00:44;;;;;;;1.03;0.80;;;;;;;;;;5050845;28;20203;-36
2023/04/12 12:03:14;;;;;;;2.77;0.93;;;;;;;;;;5037760;28;20716;-40
2023/04/12 12:05:42;;;;;;;0.57;0.57;;;;;;;;;;5047768;28;20257;-40
2023/04/12 12:08:11;;;;;;;1.63;0.50;;;;;;;;;;5051944;28;20210;-41
2023/04/12 12:10:38;;;;;;;3.67;0.70;;;;;;;;;;5041023;28;20210;-41
2023/04/12 12:13:10;;;;;;;0.53;0.53;;;;;;;;;;5056021;28;20241;-41
2023/04/12 12:15:37;;;;;;;1.40;0.73;;;;;;;;;;5051480;28;20255;-40
2023/04/12 12:18:05;;;;;;;3.17;0.60;;;;;;;;;;5046752;28;20313;-40
2023/04/12 12:20:32;;;;;;;0.60;0.60;;;;;;;;;;5051392;28;20198;-37
2023/04/12 12:22:59;;;;;;;1.73;0.70;;;;;;;;;;5053704;28;20864;-35
2023/04/12 12:25:29;;;;;;;1.73;1.10;;;;;;;;;;5049124;28;20209;-42
2023/04/12 12:27:58;;;;;;;0.57;0.57;;;;;;;;;;5034519;28;20270;-33
2023/04/12 12:30:25;;;;;;;1.37;0.70;;;;;;;;;;5032128;28;20203;-41
2023/04/12 12:32:52;;;;;;;0.60;0.60;;;;;;;;;;5046705;28;20234;-36
2023/04/12 12:35:19;;;;;;;0.60;0.60;;;;;;;;;;5041120;28;20656;-41
2023/04/12 12:37:51;;;;;;;1.73;0.70;;;;;;;;;;5053391;28;20210;-37
2023/04/12 12:40:20;;;;;;;2.33;0.77;;;;;;;;;;5041304;28;20206;-40
2023/04/12 12:42:49;;;;;;;0.83;0.47;;;;;;;;;;5035802;28;20228;-39
2023/04/12 12:45:17;;;;;;;1.97;0.77;;;;;;;;;;5045349;28;20213;-42
2023/04/12 12:47:48;;;;;;;0.50;0.50;;;;;;;;;;5042537;28;20572;-37
2023/04/12 12:50:17;;;;;;;1.70;0.60;;;;;;;;;;5037287;28;20241;-43
2023/04/12 12:52:44;;;;;;;0.80;0.70;;;;;;;;;;5039322;28;20194;-43
2023/04/12 12:55:12;;;;;;;1.13;0.40;;;;;;;;;;5047465;28;20199;-42
2023/04/12 12:57:39;;;;;;;1.73;0.60;;;;;;;;;;5048309;28;20210;-38
2023/04/12 13:00:09;;;;;;;1.97;0.50;;;;;;;;;;5052691;28;20268;-40
2023/04/12 13:02:39;;;;;;;0.80;0.80;;;;;;;;;;5033186;28;20206;-37
2023/04/12 13:05:07;;;;;;;1.40;0.50;;;;;;;;;;5042704;28;20203;-42
2023/04/12 13:07:34;;;;;;;3.60;0.73;;;;;;;;;;5050725;28;20197;-42
2023/04/12 13:10:02;;;;;;;1.60;0.53;;;;;;;;;;5042675;28;20288;-43
2023/04/12 13:12:29;;;;;;;1.00;0.83;;;;;;;;;;5045231;28;20209;-43
2023/04/12 13:14:59;;;;;;;1.43;0.70;;;;;;;;;;5052508;28;20214;-39
2023/04/12 13:17:30;;;;;;;0.83;0.70;;;;;;;;;;5044735;28;20525;-36
2023/04/12 13:19:58;;;;;;;1.30;0.53;;;;;;;;;;5033790;28;20310;-39
2023/04/12 13:22:26;;;;;;;0.50;0.50;;;;;;;;;;5032859;28;20206;-36
2023/04/12 13:24:53;;;;;;;0.40;0.40;;;;;;;;;;5044089;28;20213;-39
2023/04/12 13:27:21;;;;;;;1.10;0.60;;;;;;;;;;5045706;28;20663;-38
2023/04/12 13:29:48;;;;;;;0.57;0.57;;;;;;;;;;5046139;28;20210;-40
2023/04/12 13:32:16;;;;;;;1.17;0.57;;;;;;;;;;5040041;28;20212;-41
2023/04/12 13:34:43;;;;;;;0.87;0.60;;;;;;;;;;5046368;28;20228;-41
2023/04/12 13:37:12;;;;;;;1.07;0.90;;;;;;;;;;5045688;28;20206;-41
2023/04/12 13:39:39;;;;;;;0.63;0.60;;;;;;;;;;5043902;28;20275;-40
2023/04/12 13:42:07;;;;;;;1.00;0.70;;;;;;;;;;5034451;28;20218;-35
2023/04/12 13:44:35;;;;;;;1.10;0.70;;;;;;;;;;5050013;28;20225;-38
2023/04/12 13:47:02;;;;;;;0.50;0.50;;;;;;;;;;5035912;28;20214;-43
2023/04/12 13:49:29;;;;;;;0.70;0.70;;;;;;;;;;5044291;28;20202;-42
2023/04/12 13:51:57;;;;;;;0.87;0.60;;;;;;;;;;5031727;28;20214;-39
2023/04/12 13:54:26;;;;;;;0.50;0.50;;;;;;;;;;5033008;28;20225;-39
2023/04/12 13:56:53;;;;;;;0.50;0.50;;;;;;;;;;5038265;28;20206;-42
2023/04/12 13:59:20;;;;;;;0.70;0.60;;;;;;;;;;5046387;28;20213;-41
2023/04/12 14:01:48;;;;;;;1.17;0.60;;;;;;;;;;5056560;28;20596;-35
2023/04/12 14:04:15;;;;;;;1.67;0.90;;;;;;;;;;5050694;28;20229;-40
2023/04/12 14:06:44;;;;;;;2.40;1.37;;;;;;;;;;5050567;28;20217;-43
2023/04/12 14:09:11;;;;;;;2.00;1.23;;;;;;;;;;5045705;28;20261;-41
2023/04/12 14:11:48;;;;;;;1.37;0.70;;;;;;;;;;5046882;28;20201;-35
2023/04/12 14:14:16;;;;;;;1.40;1.30;;;;;;;;;;5045303;28;20225;-41
2023/04/12 14:16:44;;;;;;;1.23;0.97;;;;;;;;;;5043698;28;20292;-41
2023/04/12 14:19:11;;;;;;;1.03;0.93;;;;;;;;;;5040923;28;20230;-40
2023/04/12 14:21:38;;;;;;;1.40;0.90;;;;;;;;;;5042199;28;20297;-38
2023/04/12 14:24:06;;;;;;;0.67;0.63;;;;;;;;;;5051909;28;20328;-36
2023/04/12 14:26:33;;;;;;;0.87;0.50;;;;;;;;;;5042681;28;20209;-40
2023/04/12 14:29:01;;;;;;;0.67;0.50;;;;;;;;;;5045102;28;20209;-40
2023/04/12 14:31:29;;;;;;;0.40;0.40;;;;;;;;;;5037809;28;20207;-41
2023/04/12 14:33:56;;;;;;;1.23;0.60;;;;;;;;;;5038844;28;20218;-39
2023/04/12 14:36:23;;;;;;;0.97;0.60;;;;;;;;;;5034439;28;20207;-38
2023/04/12 14:38:50;;;;;;;0.97;0.60;;;;;;;;;;5049387;28;20218;-39
2023/04/12 14:41:17;;;;;;;0.47;0.47;;;;;;;;;;5041943;28;20673;-36
2023/04/12 14:43:44;;;;;;;0.37;0.37;;;;;;;;;;5042828;28;20228;-40
2023/04/12 14:46:13;;;;;;;1.27;0.73;;;;;;;;;;5034491;28;20557;-44
2023/04/12 14:48:41;;;;;;;1.03;0.60;;;;;;;;;;5037736;28;20234;-37
2023/04/12 14:51:08;;;;;;;1.03;0.93;;;;;;;;;;5043681;28;20202;-37